MGL137 ZMCK-EDDF
Flight info
| Callsign | MGL137 |
|---|---|
| Flight time | N/A |
| Altitude | 32000 |
| Route | LUBSO2C LUBSO A575 DARNO/K0841F321 P982 TR A308 ABK R104 BA R229 XV B228 LITUN N869 UNISO L870 RANVA/N0437F321 L870 RESMO DCT SOKVA DCT GARSO DCT RONUN/K0804F321 DCT KUNER/N0433F321 P31 BEZMI DCT ALUKA DCT POVEL DCT RIMET T157 KERAX KERAX5A |
| Aircraft | B763/H-SDE3FGHIM3RWXY/LB1 |
Departure
| Time | 2026-05-05 09:30 |
|---|---|
| Airport | Ulaanbaatar Chinggis Khaan International Airport (ZMCK) |
Arrival
| Time | N/A |
|---|---|
| Airport | Frankfurt Main Airport (EDDF) |
| Time | Latitude | Longitude | Altitude | Speed | Heading |
|---|---|---|---|---|---|
| 2026-05-05 08:58 | 47.65189 | 106.81836 | 4517 ft | 0 kts | 15° |
| 2026-05-05 09:15 | 47.65183 | 106.81834 | 4517 ft | 2 kts | 15° |
| 2026-05-05 09:15 | 47.65169 | 106.81827 | 4516 ft | 2 kts | 15° |
| 2026-05-05 09:15 | 47.65154 | 106.81822 | 4515 ft | 2 kts | 15° |
| 2026-05-05 09:16 | 47.65140 | 106.81816 | 4513 ft | 2 kts | 15° |
| 2026-05-05 09:16 | 47.65125 | 106.81811 | 4512 ft | 2 kts | 15° |
| 2026-05-05 09:16 | 47.65111 | 106.81805 | 4511 ft | 2 kts | 15° |
| 2026-05-05 09:16 | 47.65097 | 106.81799 | 4510 ft | 2 kts | 15° |
| 2026-05-05 09:17 | 47.65082 | 106.81793 | 4508 ft | 2 kts | 15° |
| 2026-05-05 09:17 | 47.65068 | 106.81788 | 4507 ft | 2 kts | 15° |
| 2026-05-05 09:17 | 47.65053 | 106.81782 | 4506 ft | 2 kts | 15° |
| 2026-05-05 09:17 | 47.65039 | 106.81776 | 4505 ft | 2 kts | 26° |
| 2026-05-05 09:18 | 47.65026 | 106.81763 | 4503 ft | 2 kts | 45° |
| 2026-05-05 09:18 | 47.65017 | 106.81746 | 4502 ft | 2 kts | 62° |
| 2026-05-05 09:18 | 47.65011 | 106.81725 | 4501 ft | 2 kts | 78° |
| 2026-05-05 09:18 | 47.65010 | 106.81703 | 4501 ft | 2 kts | 95° |
| 2026-05-05 09:19 | 47.65011 | 106.81689 | 4501 ft | 0 kts | 105° |
| 2026-05-05 09:19 | 47.65012 | 106.81686 | 4501 ft | 0 kts | 105° |
| 2026-05-05 09:23 | 47.65010 | 106.81696 | 4501 ft | 2 kts | 105° |
| 2026-05-05 09:23 | 47.65001 | 106.81745 | 4501 ft | 7 kts | 105° |
| 2026-05-05 09:23 | 47.64981 | 106.81854 | 4502 ft | 14 kts | 104° |
| 2026-05-05 09:24 | 47.64949 | 106.82040 | 4503 ft | 22 kts | 104° |
| 2026-05-05 09:24 | 47.64912 | 106.82253 | 4504 ft | 22 kts | 104° |
| 2026-05-05 09:24 | 47.64870 | 106.82480 | 4505 ft | 23 kts | 112° |
| 2026-05-05 09:24 | 47.64749 | 106.82671 | 4496 ft | 29 kts | 109° |
| 2026-05-05 09:25 | 47.64711 | 106.82896 | 4494 ft | 20 kts | 104° |
| 2026-05-05 09:25 | 47.64677 | 106.83090 | 4495 ft | 18 kts | 104° |
| 2026-05-05 09:25 | 47.64646 | 106.83270 | 4496 ft | 17 kts | 104° |
| 2026-05-05 09:25 | 47.64616 | 106.83445 | 4498 ft | 17 kts | 103° |
| 2026-05-05 09:26 | 47.64586 | 106.83614 | 4498 ft | 17 kts | 105° |
| 2026-05-05 09:26 | 47.64554 | 106.83788 | 4499 ft | 17 kts | 105° |
| 2026-05-05 09:26 | 47.64520 | 106.83978 | 4498 ft | 20 kts | 104° |
| 2026-05-05 09:26 | 47.64484 | 106.84186 | 4499 ft | 21 kts | 105° |
| 2026-05-05 09:27 | 47.64421 | 106.84331 | 4498 ft | 9 kts | 165° |
| 2026-05-05 09:27 | 47.64400 | 106.84332 | 4497 ft | 0 kts | 189° |
| 2026-05-05 09:28 | 47.64375 | 106.84325 | 4495 ft | 7 kts | 189° |
| 2026-05-05 09:28 | 47.64309 | 106.84282 | 4491 ft | 13 kts | 233° |
| 2026-05-05 09:28 | 47.64309 | 106.84165 | 4488 ft | 0 kts | 284° |
| 2026-05-05 09:29 | 47.64314 | 106.84134 | 4488 ft | 10 kts | 285° |
| 2026-05-05 09:29 | 47.64369 | 106.83834 | 4486 ft | 52 kts | 285° |
| 2026-05-05 09:29 | 47.64494 | 106.83115 | 4482 ft | 92 kts | 285° |
| 2026-05-05 09:29 | 47.64690 | 106.82015 | 4482 ft | 127 kts | 285° |
| 2026-05-05 09:30 | 47.64946 | 106.80570 | 4485 ft | 159 kts | 286° |
| 2026-05-05 09:30 | 47.65232 | 106.78879 | 4566 ft | 178 kts | 287° |
| 2026-05-05 09:30 | 47.65516 | 106.77057 | 4831 ft | 184 kts | 285° |
| 2026-05-05 09:30 | 47.65770 | 106.75190 | 5166 ft | 187 kts | 284° |
| 2026-05-05 09:31 | 47.66065 | 106.73299 | 5454 ft | 192 kts | 291° |
| 2026-05-05 09:31 | 47.66684 | 106.71469 | 5493 ft | 209 kts | 312° |
| 2026-05-05 09:31 | 47.67739 | 106.69828 | 5520 ft | 233 kts | 316° |
| 2026-05-05 09:31 | 47.68911 | 106.68024 | 5752 ft | 249 kts | 315° |
| 2026-05-05 09:32 | 47.70121 | 106.66153 | 6316 ft | 253 kts | 315° |
| 2026-05-05 09:32 | 47.71349 | 106.64258 | 6905 ft | 255 kts | 315° |
| 2026-05-05 09:32 | 47.72576 | 106.62364 | 7476 ft | 257 kts | 315° |
| 2026-05-05 09:32 | 47.73811 | 106.60458 | 8037 ft | 259 kts | 315° |
| 2026-05-05 09:33 | 47.75058 | 106.58532 | 8588 ft | 261 kts | 315° |
| 2026-05-05 09:33 | 47.76328 | 106.56568 | 9133 ft | 263 kts | 315° |
| 2026-05-05 09:33 | 47.77598 | 106.54604 | 9663 ft | 265 kts | 315° |
| 2026-05-05 09:33 | 47.78873 | 106.52632 | 10157 ft | 268 kts | 315° |
| 2026-05-05 09:34 | 47.80211 | 106.50561 | 10197 ft | 290 kts | 315° |
| 2026-05-05 09:34 | 47.81663 | 106.48312 | 10233 ft | 311 kts | 315° |
| 2026-05-05 09:34 | 47.83200 | 106.45926 | 10602 ft | 321 kts | 315° |
| 2026-05-05 09:34 | 47.84736 | 106.43530 | 11144 ft | 325 kts | 314° |
| 2026-05-05 09:35 | 47.86182 | 106.40878 | 11712 ft | 328 kts | 309° |
| 2026-05-05 09:35 | 47.88995 | 106.35532 | 12889 ft | 330 kts | 310° |
| 2026-05-05 09:35 | 47.90401 | 106.32853 | 13466 ft | 331 kts | 309° |
| 2026-05-05 09:36 | 47.91814 | 106.30156 | 14038 ft | 332 kts | 309° |
| 2026-05-05 09:36 | 47.93236 | 106.27437 | 14600 ft | 333 kts | 309° |
| 2026-05-05 09:36 | 47.94665 | 106.24703 | 15150 ft | 334 kts | 309° |
| 2026-05-05 09:36 | 47.96091 | 106.21973 | 15691 ft | 334 kts | 309° |
| 2026-05-05 09:37 | 47.97510 | 106.19250 | 16212 ft | 335 kts | 309° |
| 2026-05-05 09:37 | 47.98956 | 106.16476 | 16736 ft | 336 kts | 309° |
| 2026-05-05 09:37 | 48.00387 | 106.13727 | 17236 ft | 337 kts | 309° |
| 2026-05-05 09:37 | 48.01813 | 106.10984 | 17724 ft | 338 kts | 309° |
| 2026-05-05 09:38 | 48.03251 | 106.08216 | 18206 ft | 338 kts | 309° |
| 2026-05-05 09:38 | 48.04700 | 106.05423 | 18677 ft | 339 kts | 309° |
| 2026-05-05 09:38 | 48.06135 | 106.02655 | 19142 ft | 340 kts | 309° |
| 2026-05-05 09:38 | 48.07588 | 105.99849 | 19584 ft | 341 kts | 309° |
| 2026-05-05 09:39 | 48.09042 | 105.97038 | 20031 ft | 341 kts | 309° |
| 2026-05-05 09:39 | 48.10489 | 105.94237 | 20460 ft | 342 kts | 308° |
| 2026-05-05 09:39 | 48.11952 | 105.91404 | 20893 ft | 343 kts | 308° |
| 2026-05-05 09:39 | 48.13397 | 105.88601 | 21318 ft | 344 kts | 308° |
| 2026-05-05 09:40 | 48.14654 | 105.85559 | 21683 ft | 347 kts | 297° |
| 2026-05-05 09:40 | 48.15682 | 105.82276 | 22113 ft | 347 kts | 297° |
| 2026-05-05 09:40 | 48.16703 | 105.79028 | 22512 ft | 348 kts | 297° |
| 2026-05-05 09:40 | 48.17732 | 105.75731 | 22895 ft | 349 kts | 297° |
| 2026-05-05 09:41 | 48.18762 | 105.72415 | 23285 ft | 350 kts | 297° |
| 2026-05-05 09:41 | 48.19775 | 105.69148 | 23664 ft | 350 kts | 296° |
| 2026-05-05 09:41 | 48.20800 | 105.65836 | 24028 ft | 351 kts | 296° |
| 2026-05-05 09:41 | 48.21822 | 105.62526 | 24387 ft | 352 kts | 296° |
| 2026-05-05 09:42 | 48.22850 | 105.59193 | 24728 ft | 353 kts | 296° |
| 2026-05-05 09:42 | 48.23885 | 105.55835 | 25085 ft | 353 kts | 296° |
| 2026-05-05 09:42 | 48.24914 | 105.52487 | 25409 ft | 355 kts | 296° |
| 2026-05-05 09:42 | 48.25938 | 105.49155 | 25744 ft | 355 kts | 296° |
| 2026-05-05 09:43 | 48.26971 | 105.45787 | 26065 ft | 356 kts | 296° |
| 2026-05-05 09:43 | 48.28007 | 105.42403 | 26385 ft | 357 kts | 296° |
| 2026-05-05 09:43 | 48.29028 | 105.39064 | 26677 ft | 358 kts | 295° |
| 2026-05-05 09:43 | 48.30076 | 105.35635 | 26974 ft | 359 kts | 295° |
| 2026-05-05 09:44 | 48.31111 | 105.32242 | 27283 ft | 359 kts | 295° |
| 2026-05-05 09:44 | 48.32145 | 105.28844 | 27578 ft | 360 kts | 294° |
| 2026-05-05 09:44 | 48.33181 | 105.25441 | 27892 ft | 361 kts | 294° |
| 2026-05-05 09:44 | 48.34221 | 105.22018 | 28163 ft | 362 kts | 294° |
| 2026-05-05 09:45 | 48.35273 | 105.18551 | 28453 ft | 363 kts | 294° |
| 2026-05-05 09:45 | 48.36320 | 105.15094 | 28730 ft | 364 kts | 294° |
| 2026-05-05 09:45 | 48.37358 | 105.11662 | 29007 ft | 365 kts | 294° |
| 2026-05-05 09:45 | 48.38402 | 105.08206 | 29246 ft | 366 kts | 294° |
| 2026-05-05 09:46 | 48.39466 | 105.04681 | 29480 ft | 368 kts | 294° |
| 2026-05-05 09:46 | 48.40521 | 105.01177 | 29699 ft | 370 kts | 293° |
| 2026-05-05 09:46 | 48.41569 | 104.97691 | 29941 ft | 371 kts | 293° |
| 2026-05-05 09:46 | 48.42635 | 104.94144 | 30146 ft | 373 kts | 293° |
| 2026-05-05 09:47 | 48.43699 | 104.90596 | 30360 ft | 374 kts | 293° |
| 2026-05-05 09:47 | 48.44765 | 104.87038 | 30533 ft | 376 kts | 293° |
| 2026-05-05 09:47 | 48.45837 | 104.83450 | 30779 ft | 376 kts | 293° |
| 2026-05-05 09:47 | 48.46915 | 104.79843 | 31036 ft | 375 kts | 293° |
| 2026-05-05 09:48 | 48.47983 | 104.76263 | 31311 ft | 374 kts | 293° |
| 2026-05-05 09:48 | 48.49043 | 104.72701 | 31596 ft | 372 kts | 292° |
| 2026-05-05 09:48 | 48.50086 | 104.69195 | 31837 ft | 371 kts | 292° |
| 2026-05-05 09:48 | 48.51138 | 104.65653 | 32007 ft | 371 kts | 292° |
| 2026-05-05 09:49 | 48.53269 | 104.58455 | 32011 ft | 380 kts | 292° |
| 2026-05-05 09:49 | 48.55432 | 104.51129 | 32008 ft | 389 kts | 292° |
| 2026-05-05 09:50 | 48.57662 | 104.43558 | 32007 ft | 398 kts | 293° |
| 2026-05-05 09:50 | 48.59921 | 104.35860 | 32005 ft | 407 kts | 292° |
| 2026-05-05 09:51 | 48.62233 | 104.27959 | 32017 ft | 411 kts | 292° |
| 2026-05-05 09:51 | 48.63364 | 104.24088 | 32001 ft | 400 kts | 292° |
| 2026-05-05 09:51 | 48.64463 | 104.20323 | 32004 ft | 388 kts | 292° |
| 2026-05-05 09:52 | 48.66637 | 104.12843 | 32018 ft | 390 kts | 292° |
| 2026-05-05 09:52 | 48.68827 | 104.05286 | 32014 ft | 398 kts | 292° |
| 2026-05-05 09:53 | 48.71067 | 103.97532 | 32016 ft | 405 kts | 292° |
| 2026-05-05 09:53 | 48.73332 | 103.89668 | 32011 ft | 409 kts | 292° |
| 2026-05-05 09:54 | 48.75588 | 103.81811 | 32007 ft | 407 kts | 292° |
| 2026-05-05 09:54 | 48.77829 | 103.73978 | 32009 ft | 408 kts | 292° |
| 2026-05-05 09:55 | 48.80078 | 103.66094 | 32006 ft | 407 kts | 292° |
| 2026-05-05 09:55 | 48.82314 | 103.58228 | 32013 ft | 408 kts | 292° |
| 2026-05-05 09:56 | 48.84543 | 103.50361 | 32036 ft | 407 kts | 292° |
| 2026-05-05 09:56 | 48.86771 | 103.42471 | 32084 ft | 407 kts | 292° |
| 2026-05-05 09:57 | 48.88909 | 103.34589 | 32147 ft | 406 kts | 290° |
| 2026-05-05 09:57 | 48.90966 | 103.26609 | 32202 ft | 405 kts | 290° |
| 2026-05-05 09:58 | 48.93029 | 103.18573 | 32226 ft | 405 kts | 290° |
| 2026-05-05 09:58 | 48.95072 | 103.10596 | 32227 ft | 406 kts | 290° |
| 2026-05-05 09:59 | 48.97127 | 103.02541 | 32225 ft | 410 kts | 290° |
| 2026-05-05 09:59 | 48.99220 | 102.94311 | 32225 ft | 417 kts | 291° |
| 2026-05-05 10:00 | 49.01305 | 102.86081 | 32222 ft | 420 kts | 291° |
| 2026-05-05 10:00 | 49.03411 | 102.77743 | 32223 ft | 424 kts | 291° |
| 2026-05-05 10:01 | 49.05529 | 102.69320 | 32222 ft | 429 kts | 291° |
| 2026-05-05 10:01 | 49.07677 | 102.60748 | 32221 ft | 433 kts | 291° |
| 2026-05-05 10:02 | 49.09818 | 102.52172 | 32221 ft | 437 kts | 291° |
| 2026-05-05 10:02 | 49.11979 | 102.43484 | 32226 ft | 442 kts | 291° |
| 2026-05-05 10:03 | 49.14155 | 102.34699 | 32225 ft | 442 kts | 291° |
| 2026-05-05 10:03 | 49.16317 | 102.25936 | 32231 ft | 441 kts | 291° |
| 2026-05-05 10:04 | 49.18466 | 102.17191 | 32231 ft | 442 kts | 291° |
| 2026-05-05 10:04 | 49.20616 | 102.08406 | 32229 ft | 441 kts | 291° |
| 2026-05-05 10:05 | 49.22763 | 101.99605 | 32229 ft | 442 kts | 291° |
| 2026-05-05 10:05 | 49.24897 | 101.90823 | 32229 ft | 442 kts | 291° |
| 2026-05-05 10:06 | 49.27020 | 101.82053 | 32228 ft | 442 kts | 291° |
| 2026-05-05 10:06 | 49.29145 | 101.73241 | 32199 ft | 443 kts | 291° |
| 2026-05-05 10:07 | 49.30218 | 101.68778 | 32028 ft | 445 kts | 291° |
| 2026-05-05 10:07 | 49.31274 | 101.64375 | 32036 ft | 440 kts | 291° |
| 2026-05-05 10:07 | 49.33375 | 101.55585 | 32039 ft | 442 kts | 291° |
| 2026-05-05 10:08 | 49.35480 | 101.46750 | 32035 ft | 442 kts | 291° |
| 2026-05-05 10:08 | 49.37579 | 101.37902 | 32037 ft | 441 kts | 291° |
| 2026-05-05 10:09 | 49.39665 | 101.29070 | 32042 ft | 442 kts | 290° |
| 2026-05-05 10:09 | 49.41766 | 101.20139 | 32040 ft | 442 kts | 290° |
| 2026-05-05 10:10 | 49.43839 | 101.11295 | 32040 ft | 442 kts | 290° |
| 2026-05-05 10:10 | 49.45911 | 101.02413 | 32039 ft | 442 kts | 290° |
| 2026-05-05 10:11 | 49.47968 | 100.93557 | 32038 ft | 440 kts | 290° |
| 2026-05-05 10:11 | 49.50010 | 100.84726 | 32038 ft | 437 kts | 291° |
| 2026-05-05 10:12 | 49.52021 | 100.75996 | 32036 ft | 436 kts | 291° |
| 2026-05-05 10:12 | 49.54043 | 100.67187 | 32036 ft | 436 kts | 291° |
| 2026-05-05 10:13 | 49.56052 | 100.58392 | 32035 ft | 437 kts | 291° |
| 2026-05-05 10:13 | 49.58044 | 100.49633 | 32034 ft | 436 kts | 291° |
| 2026-05-05 10:14 | 49.60048 | 100.40788 | 32034 ft | 436 kts | 291° |
| 2026-05-05 10:14 | 49.62032 | 100.31996 | 32040 ft | 436 kts | 290° |
| 2026-05-05 10:15 | 49.64019 | 100.23148 | 32039 ft | 437 kts | 290° |
| 2026-05-05 10:15 | 49.66430 | 100.14623 | 32044 ft | 434 kts | 301° |
| 2026-05-05 10:16 | 49.69486 | 100.06654 | 32037 ft | 435 kts | 301° |
| 2026-05-05 10:16 | 49.72561 | 99.98659 | 32038 ft | 435 kts | 301° |
| 2026-05-05 10:17 | 49.75652 | 99.90617 | 32036 ft | 435 kts | 301° |
| 2026-05-05 10:17 | 49.78734 | 99.82581 | 32035 ft | 435 kts | 301° |
| 2026-05-05 10:18 | 49.81792 | 99.74582 | 32034 ft | 434 kts | 301° |
| 2026-05-05 10:18 | 49.84861 | 99.66532 | 32034 ft | 434 kts | 301° |
| 2026-05-05 10:19 | 49.87908 | 99.58516 | 32033 ft | 434 kts | 301° |
| 2026-05-05 10:19 | 49.90960 | 99.50458 | 32031 ft | 435 kts | 301° |
| 2026-05-05 10:20 | 49.94014 | 99.42373 | 32031 ft | 435 kts | 301° |
| 2026-05-05 10:20 | 49.97063 | 99.34275 | 32031 ft | 434 kts | 301° |
| 2026-05-05 10:21 | 50.00093 | 99.26202 | 32036 ft | 435 kts | 301° |
| 2026-05-05 10:21 | 50.03135 | 99.18076 | 32037 ft | 435 kts | 301° |
| 2026-05-05 10:22 | 50.04641 | 99.14041 | 32244 ft | 430 kts | 301° |
| 2026-05-05 10:22 | 50.06146 | 99.10004 | 32249 ft | 431 kts | 301° |
| 2026-05-05 10:22 | 50.09107 | 99.02037 | 32248 ft | 426 kts | 301° |
| 2026-05-05 10:23 | 50.12069 | 98.94044 | 32260 ft | 423 kts | 302° |
| 2026-05-05 10:23 | 50.14986 | 98.86154 | 32257 ft | 420 kts | 302° |
| 2026-05-05 10:24 | 50.17880 | 98.78304 | 32258 ft | 421 kts | 302° |
| 2026-05-05 10:24 | 50.20802 | 98.70350 | 32256 ft | 421 kts | 302° |
| 2026-05-05 10:25 | 50.23700 | 98.62436 | 32256 ft | 421 kts | 302° |
| 2026-05-05 10:25 | 50.26586 | 98.54533 | 32255 ft | 421 kts | 302° |
| 2026-05-05 10:26 | 50.29474 | 98.46596 | 32254 ft | 421 kts | 302° |
| 2026-05-05 10:26 | 50.32352 | 98.38666 | 32253 ft | 421 kts | 302° |
| 2026-05-05 10:27 | 50.35242 | 98.30676 | 32260 ft | 421 kts | 301° |
| 2026-05-05 10:27 | 50.38469 | 98.23090 | 32260 ft | 420 kts | 306° |
| 2026-05-05 10:28 | 50.41813 | 98.15585 | 32257 ft | 420 kts | 306° |
| 2026-05-05 10:28 | 50.45115 | 98.08115 | 32257 ft | 420 kts | 306° |
| 2026-05-05 10:29 | 50.48440 | 98.00558 | 32255 ft | 420 kts | 306° |
| 2026-05-05 10:29 | 50.51767 | 97.92973 | 32255 ft | 420 kts | 306° |
| 2026-05-05 10:30 | 50.55052 | 97.85456 | 32254 ft | 420 kts | 306° |
| 2026-05-05 10:30 | 50.58340 | 97.77911 | 32252 ft | 420 kts | 306° |
| 2026-05-05 10:31 | 50.61652 | 97.70290 | 32252 ft | 420 kts | 306° |
| 2026-05-05 10:31 | 50.64925 | 97.62737 | 32240 ft | 420 kts | 306° |
| 2026-05-05 10:32 | 50.68210 | 97.55134 | 32213 ft | 421 kts | 306° |
| 2026-05-05 10:32 | 50.71500 | 97.47498 | 32187 ft | 421 kts | 306° |
| 2026-05-05 10:33 | 50.74773 | 97.39879 | 32166 ft | 422 kts | 306° |
| 2026-05-05 10:33 | 50.78062 | 97.32200 | 32173 ft | 422 kts | 306° |
| 2026-05-05 10:34 | 50.81347 | 97.24508 | 32172 ft | 422 kts | 305° |
| 2026-05-05 10:34 | 50.84602 | 97.16866 | 32171 ft | 422 kts | 306° |
| 2026-05-05 10:35 | 50.87886 | 97.09129 | 32170 ft | 425 kts | 306° |
| 2026-05-05 10:35 | 50.91186 | 97.01331 | 32170 ft | 428 kts | 306° |
| 2026-05-05 10:36 | 50.94498 | 96.93480 | 32167 ft | 430 kts | 307° |
| 2026-05-05 10:36 | 50.97803 | 96.85626 | 32166 ft | 431 kts | 307° |
| 2026-05-05 10:37 | 51.01127 | 96.77702 | 32165 ft | 432 kts | 308° |
| 2026-05-05 10:37 | 51.04448 | 96.69762 | 32165 ft | 434 kts | 308° |
| 2026-05-05 10:38 | 51.07774 | 96.61787 | 32163 ft | 434 kts | 308° |
| 2026-05-05 10:38 | 51.11105 | 96.53773 | 32178 ft | 434 kts | 308° |
| 2026-05-05 10:39 | 51.14412 | 96.45794 | 32178 ft | 433 kts | 308° |
| 2026-05-05 10:39 | 51.17710 | 96.37811 | 32178 ft | 434 kts | 308° |
| 2026-05-05 10:40 | 51.21022 | 96.29768 | 32180 ft | 435 kts | 307° |
| 2026-05-05 10:40 | 51.24330 | 96.21709 | 32178 ft | 434 kts | 307° |
| 2026-05-05 10:41 | 51.27624 | 96.13663 | 32179 ft | 435 kts | 307° |
| 2026-05-05 10:41 | 51.30903 | 96.05624 | 32177 ft | 434 kts | 307° |
| 2026-05-05 10:42 | 51.35831 | 95.93498 | 32176 ft | 434 kts | 308° |
| 2026-05-05 10:43 | 51.39100 | 95.85424 | 32174 ft | 434 kts | 307° |
| 2026-05-05 10:43 | 51.42371 | 95.77319 | 32174 ft | 434 kts | 308° |
| 2026-05-05 10:44 | 51.45624 | 95.69233 | 32173 ft | 435 kts | 308° |
| 2026-05-05 10:44 | 51.48893 | 95.61083 | 32172 ft | 434 kts | 307° |
| 2026-05-05 10:45 | 51.52135 | 95.52971 | 32173 ft | 435 kts | 308° |
| 2026-05-05 10:45 | 51.55405 | 95.44765 | 32172 ft | 434 kts | 308° |
| 2026-05-05 10:46 | 51.58643 | 95.36616 | 32171 ft | 435 kts | 308° |
| 2026-05-05 10:46 | 51.61886 | 95.28426 | 32174 ft | 435 kts | 307° |
| 2026-05-05 10:47 | 51.65115 | 95.20245 | 32172 ft | 435 kts | 307° |
| 2026-05-05 10:47 | 51.68361 | 95.11996 | 32173 ft | 435 kts | 307° |
| 2026-05-05 10:48 | 51.71585 | 95.03774 | 32170 ft | 435 kts | 307° |
| 2026-05-05 10:48 | 51.74807 | 94.95538 | 32171 ft | 438 kts | 306° |
| 2026-05-05 10:49 | 51.78041 | 94.87240 | 32170 ft | 441 kts | 306° |
| 2026-05-05 10:49 | 51.81309 | 94.78825 | 32170 ft | 445 kts | 306° |
| 2026-05-05 10:50 | 51.84583 | 94.70365 | 32168 ft | 444 kts | 306° |
| 2026-05-05 10:50 | 51.87838 | 94.61929 | 32168 ft | 443 kts | 306° |
| 2026-05-05 10:51 | 51.91097 | 94.53455 | 32167 ft | 444 kts | 306° |
| 2026-05-05 10:51 | 51.94338 | 94.44999 | 32167 ft | 444 kts | 306° |
| 2026-05-05 10:52 | 51.97581 | 94.36510 | 32167 ft | 444 kts | 306° |
| 2026-05-05 10:52 | 52.00823 | 94.27997 | 32169 ft | 444 kts | 305° |
| 2026-05-05 10:53 | 52.04044 | 94.19509 | 32167 ft | 444 kts | 305° |
| 2026-05-05 10:53 | 52.07283 | 94.10947 | 32167 ft | 444 kts | 305° |
| 2026-05-05 10:54 | 52.10501 | 94.02409 | 32172 ft | 444 kts | 305° |
| 2026-05-05 10:54 | 52.13715 | 93.93866 | 32177 ft | 444 kts | 306° |
| 2026-05-05 10:55 | 52.17715 | 93.86450 | 32185 ft | 436 kts | 321° |
| 2026-05-05 10:55 | 52.22257 | 93.79919 | 32178 ft | 438 kts | 320° |
| 2026-05-05 10:56 | 52.26791 | 93.73337 | 32176 ft | 437 kts | 320° |
| 2026-05-05 10:56 | 52.31305 | 93.66753 | 32176 ft | 437 kts | 320° |
| 2026-05-05 10:57 | 52.35815 | 93.60154 | 32175 ft | 437 kts | 320° |
| 2026-05-05 10:57 | 52.40331 | 93.53528 | 32174 ft | 438 kts | 320° |
| 2026-05-05 10:58 | 52.44866 | 93.46853 | 32173 ft | 438 kts | 320° |
| 2026-05-05 10:58 | 52.49366 | 93.40211 | 32172 ft | 437 kts | 320° |
| 2026-05-05 10:59 | 52.53891 | 93.33513 | 32174 ft | 438 kts | 320° |
| 2026-05-05 10:59 | 52.58408 | 93.26806 | 32174 ft | 438 kts | 320° |
| 2026-05-05 11:00 | 52.62929 | 93.20075 | 32173 ft | 437 kts | 320° |
| 2026-05-05 11:00 | 52.67424 | 93.13364 | 32173 ft | 438 kts | 320° |
| 2026-05-05 11:01 | 52.71920 | 93.06632 | 32172 ft | 440 kts | 320° |
| 2026-05-05 11:01 | 52.76498 | 92.99755 | 32172 ft | 446 kts | 319° |
| 2026-05-05 11:02 | 52.81077 | 92.92857 | 32171 ft | 449 kts | 319° |
| 2026-05-05 11:02 | 52.85702 | 92.85870 | 32172 ft | 454 kts | 319° |
| 2026-05-05 11:03 | 52.90351 | 92.78820 | 32169 ft | 453 kts | 319° |
| 2026-05-05 11:03 | 52.94991 | 92.71767 | 32170 ft | 453 kts | 319° |
| 2026-05-05 11:04 | 52.99621 | 92.64706 | 32169 ft | 453 kts | 319° |
| 2026-05-05 11:04 | 53.04247 | 92.57630 | 32168 ft | 452 kts | 319° |
| 2026-05-05 11:05 | 53.08863 | 92.50547 | 32166 ft | 454 kts | 320° |
| 2026-05-05 11:05 | 53.13475 | 92.43451 | 32177 ft | 454 kts | 320° |
| 2026-05-05 11:06 | 53.18088 | 92.36332 | 32173 ft | 453 kts | 320° |
| 2026-05-05 11:06 | 53.22693 | 92.29202 | 32174 ft | 453 kts | 319° |
| 2026-05-05 11:07 | 53.27298 | 92.22049 | 32177 ft | 455 kts | 319° |
| 2026-05-05 11:07 | 53.29629 | 92.18422 | 32067 ft | 454 kts | 319° |
| 2026-05-05 11:07 | 53.31905 | 92.14871 | 32064 ft | 449 kts | 319° |
| 2026-05-05 11:08 | 53.36455 | 92.07763 | 32069 ft | 451 kts | 319° |
| 2026-05-05 11:08 | 53.40158 | 92.01573 | 32065 ft | 453 kts | 315° |